createdAt,value
2017-11-25T00:00:43.713Z,0
2017-11-25T00:01:52.794Z,0
2017-11-25T00:03:01.604Z,0
2017-11-25T00:04:10.409Z,0
2017-11-25T00:05:19.215Z,0
2017-11-25T00:06:27.754Z,0
2017-11-25T00:07:36.849Z,0
2017-11-25T00:08:45.929Z,0
2017-11-25T00:09:54.746Z,0
2017-11-25T00:11:03.831Z,0
2017-11-25T00:12:12.655Z,0
2017-11-25T00:13:21.464Z,0
2017-11-25T00:14:30.283Z,0
2017-11-25T00:15:39.089Z,0
2017-11-25T00:16:48.539Z,0
2017-11-25T00:17:57.363Z,0
2017-11-25T00:19:06.182Z,0
2017-11-25T00:20:14.717Z,0
2017-11-25T00:21:24.084Z,0
2017-11-25T00:22:32.632Z,0
2017-11-25T00:23:41.710Z,0
2017-11-25T00:24:50.532Z,0
2017-11-25T00:25:59.621Z,0
2017-11-25T00:27:08.702Z,0
2017-11-25T00:28:17.522Z,0
2017-11-25T00:29:26.602Z,0
2017-11-25T00:30:35.409Z,0
2017-11-25T00:31:43.949Z,0
2017-11-25T00:32:52.769Z,0
2017-11-25T00:34:01.576Z,0
2017-11-25T00:35:10.404Z,0
2017-11-25T00:36:19.772Z,0
2017-11-25T00:37:28.585Z,0
2017-11-25T00:38:37.391Z,0
2017-11-25T00:39:46.209Z,0
2017-11-25T00:40:55.288Z,0
2017-11-25T00:42:03.823Z,0
2017-11-25T00:43:12.667Z,0
2017-11-25T00:44:21.448Z,0
2017-11-25T00:45:30.534Z,0
2017-11-25T00:46:39.342Z,0
2017-11-25T00:47:47.881Z,0
2017-11-25T00:48:56.693Z,0
2017-11-25T00:50:05.507Z,0
2017-11-25T00:51:14.045Z,0
2017-11-25T00:52:22.851Z,0
2017-11-25T00:53:31.929Z,0
2017-11-25T00:54:40.471Z,0
2017-11-25T00:55:49.283Z,0
2017-11-25T00:56:57.824Z,0
2017-11-25T00:58:06.360Z,0
2017-11-25T00:59:15.207Z,0
2017-11-25T01:00:23.707Z,0
2017-11-25T01:01:32.520Z,0
2017-11-25T01:02:41.603Z,0
2017-11-25T01:03:50.142Z,0
2017-11-25T01:04:58.951Z,0
2017-11-25T01:06:07.762Z,0
2017-11-25T01:07:16.848Z,0
2017-11-25T01:08:25.661Z,0
2017-11-25T01:09:34.480Z,0
2017-11-25T01:10:43.272Z,0
2017-11-25T01:11:51.807Z,0
2017-11-25T01:13:00.620Z,0
2017-11-25T01:14:09.711Z,0
2017-11-25T01:15:19.078Z,0
2017-11-25T01:16:27.892Z,0
2017-11-25T01:17:36.428Z,0
2017-11-25T01:18:44.966Z,0
2017-11-25T01:19:53.777Z,0
2017-11-25T01:21:02.858Z,0
2017-11-25T01:22:11.398Z,0
2017-11-25T01:23:20.216Z,0
2017-11-25T01:24:29.027Z,0
2017-11-25T01:25:37.844Z,0
2017-11-25T01:26:46.950Z,0
2017-11-25T01:27:56.040Z,0
2017-11-25T01:29:04.853Z,0
2017-11-25T01:30:13.938Z,0
2017-11-25T01:31:22.474Z,0
2017-11-25T01:32:31.014Z,0
2017-11-25T01:33:39.554Z,0
2017-11-25T01:34:48.903Z,0
2017-11-25T01:35:57.727Z,0
2017-11-25T01:37:06.262Z,0
2017-11-25T01:38:14.801Z,0
2017-11-25T01:39:24.158Z,0
2017-11-25T01:40:32.698Z,0
2017-11-25T01:41:41.796Z,0
2017-11-25T01:42:50.608Z,0
2017-11-25T01:43:59.145Z,0
2017-11-25T01:45:07.965Z,0
2017-11-25T01:46:16.505Z,0
2017-11-25T01:47:25.046Z,0
2017-11-25T01:48:34.124Z,0
2017-11-25T01:49:42.661Z,0
2017-11-25T01:50:51.471Z,0
2017-11-25T01:52:00.280Z,0
2017-11-25T01:53:09.359Z,0
2017-11-25T01:54:18.167Z,0
2017-11-25T01:55:26.703Z,0
2017-11-25T01:56:35.780Z,0
2017-11-25T01:57:44.318Z,0
2017-11-25T01:58:53.129Z,0
2017-11-25T02:00:02.484Z,0
2017-11-25T02:01:11.022Z,0
2017-11-25T02:02:20.387Z,0
2017-11-25T02:03:28.929Z,0
2017-11-25T02:04:37.734Z,0
2017-11-25T02:05:46.811Z,0
2017-11-25T02:06:55.350Z,0
2017-11-25T02:08:03.888Z,0
2017-11-25T02:09:12.428Z,0
2017-11-25T02:10:21.509Z,0
2017-11-25T02:11:30.320Z,0
2017-11-25T02:12:38.857Z,0
2017-11-25T02:13:47.667Z,0
2017-11-25T02:14:56.488Z,0
2017-11-25T02:16:05.028Z,0
2017-11-25T02:17:13.838Z,0
2017-11-25T02:18:22.654Z,0
2017-11-25T02:19:31.734Z,0
2017-11-25T02:20:40.549Z,0
2017-11-25T02:21:49.359Z,0
2017-11-25T02:22:58.167Z,0
2017-11-25T02:24:06.707Z,0
2017-11-25T02:25:15.247Z,0
2017-11-25T02:26:24.332Z,0
2017-11-25T02:27:32.873Z,0
2017-11-25T02:28:41.690Z,0
2017-11-25T02:29:50.500Z,0
2017-11-25T02:30:59.631Z,0
2017-11-25T02:32:08.170Z,0
2017-11-25T02:33:16.711Z,0
2017-11-25T02:34:25.533Z,0
2017-11-25T02:35:34.610Z,0
2017-11-25T02:36:43.976Z,0
2017-11-25T02:37:52.513Z,0
2017-11-25T02:39:01.062Z,0
2017-11-25T02:40:09.870Z,0
2017-11-25T02:41:18.682Z,0
2017-11-25T02:42:27.495Z,0
2017-11-25T02:43:36.032Z,0
2017-11-25T02:44:44.569Z,0
2017-11-25T02:45:53.652Z,0
2017-11-25T02:47:02.197Z,0
2017-11-25T02:48:11.294Z,0
2017-11-25T02:49:19.836Z,0
2017-11-25T02:50:28.376Z,0
2017-11-25T02:51:36.917Z,0
2017-11-25T02:52:45.726Z,0
2017-11-25T02:53:54.552Z,0
2017-11-25T02:55:03.362Z,0
2017-11-25T02:56:12.173Z,0
2017-11-25T02:57:20.985Z,0
2017-11-25T02:58:29.795Z,0
2017-11-25T02:59:38.874Z,0
2017-11-25T03:00:47.684Z,0
2017-11-25T03:01:56.220Z,0
2017-11-25T03:03:05.030Z,0
2017-11-25T03:04:13.570Z,0
2017-11-25T03:05:22.379Z,0
2017-11-25T03:06:30.916Z,0
2017-11-25T03:07:39.458Z,0
2017-11-25T03:08:48.265Z,0
2017-11-25T03:09:57.078Z,0
2017-11-25T03:11:06.439Z,0
2017-11-25T03:12:15.255Z,0
2017-11-25T03:13:24.064Z,0
2017-11-25T03:14:32.881Z,0
2017-11-25T03:15:41.720Z,0
2017-11-25T03:16:50.550Z,0
2017-11-25T03:17:59.088Z,0
2017-11-25T03:19:07.894Z,0
2017-11-25T03:20:16.973Z,0
2017-11-25T03:21:25.532Z,0
2017-11-25T03:22:34.323Z,0
2017-11-25T03:23:43.138Z,0
2017-11-25T03:24:51.678Z,0
2017-11-25T03:26:00.488Z,0
2017-11-25T03:27:09.027Z,0
2017-11-25T03:28:17.835Z,0
2017-11-25T03:29:26.377Z,0
2017-11-25T03:30:35.191Z,0
2017-11-25T03:31:44.544Z,0
2017-11-25T03:32:53.643Z,0
2017-11-25T03:34:02.178Z,0
2017-11-25T03:35:11.265Z,0
2017-11-25T03:36:20.073Z,0
2017-11-25T03:37:28.887Z,0
2017-11-25T03:38:37.691Z,0
2017-11-25T03:39:46.770Z,0
2017-11-25T03:40:55.588Z,0
2017-11-25T03:42:04.129Z,0
2017-11-25T03:43:12.941Z,0
2017-11-25T03:44:21.479Z,0
2017-11-25T03:45:30.560Z,0
2017-11-25T03:46:39.642Z,0
2017-11-25T03:47:48.454Z,0
2017-11-25T03:48:57.262Z,0
2017-11-25T03:50:05.801Z,0
2017-11-25T03:51:14.610Z,0
2017-11-25T03:52:23.148Z,0
2017-11-25T03:53:31.956Z,0
2017-11-25T03:54:40.495Z,0
2017-11-25T03:55:49.312Z,0
2017-11-25T03:56:58.122Z,0
2017-11-25T03:58:06.934Z,0
2017-11-25T03:59:16.010Z,0
2017-11-25T04:00:24.549Z,0
2017-11-25T04:01:33.630Z,0
2017-11-25T04:02:42.171Z,0
2017-11-25T04:03:51.255Z,0
2017-11-25T04:05:00.342Z,0
2017-11-25T04:06:09.150Z,0
2017-11-25T04:07:17.958Z,0
2017-11-25T04:08:26.774Z,0
2017-11-25T04:09:35.312Z,0
2017-11-25T04:10:44.125Z,0
2017-11-25T04:11:52.659Z,0
2017-11-25T04:13:02.012Z,0
2017-11-25T04:14:10.552Z,0
2017-11-25T04:15:19.094Z,0
2017-11-25T04:16:27.639Z,0
2017-11-25T04:17:36.448Z,0
2017-11-25T04:18:45.266Z,0
2017-11-25T04:19:54.069Z,0
2017-11-25T04:21:03.155Z,0
2017-11-25T04:22:11.971Z,0
2017-11-25T04:23:20.508Z,0
2017-11-25T04:24:30.280Z,0
2017-11-25T04:25:39.638Z,0
2017-11-25T04:26:48.186Z,0
2017-11-25T04:27:57.268Z,0
2017-11-25T04:29:06.358Z,0
2017-11-25T04:30:14.888Z,0
2017-11-25T04:31:23.426Z,0
2017-11-25T04:32:31.967Z,0
2017-11-25T04:33:40.774Z,0
2017-11-25T04:34:49.583Z,0
2017-11-25T04:35:58.397Z,0
2017-11-25T04:37:07.209Z,0
2017-11-25T04:38:16.289Z,0
2017-11-25T04:39:25.100Z,0
2017-11-25T04:40:33.910Z,0
2017-11-25T04:41:42.451Z,0
2017-11-25T04:42:50.987Z,0
2017-11-25T04:43:59.805Z,0
2017-11-25T04:45:08.604Z,0
2017-11-25T04:46:17.415Z,0
2017-11-25T04:47:25.958Z,0
2017-11-25T04:48:34.493Z,0
2017-11-25T04:49:43.033Z,0
2017-11-25T04:50:51.840Z,0
2017-11-25T04:52:00.683Z,0
2017-11-25T04:53:09.472Z,0
2017-11-25T04:54:18.010Z,0
2017-11-25T04:55:26.546Z,0
2017-11-25T04:56:35.093Z,0
2017-11-25T04:57:43.902Z,0
2017-11-25T04:58:52.469Z,0
2017-11-25T05:00:01.281Z,0
2017-11-25T05:01:10.446Z,0
2017-11-25T05:02:19.555Z,0
2017-11-25T05:03:28.656Z,0
2017-11-25T05:04:37.185Z,0
2017-11-25T05:05:46.271Z,0
2017-11-25T05:06:55.075Z,0
2017-11-25T05:08:04.430Z,0
2017-11-25T05:09:13.249Z,0
2017-11-25T05:10:22.056Z,0
2017-11-25T05:11:30.869Z,0
2017-11-25T05:12:39.949Z,0
2017-11-25T05:13:48.768Z,0
2017-11-25T05:14:57.851Z,0
2017-11-25T05:16:06.665Z,0
2017-11-25T05:17:15.748Z,0
2017-11-25T05:18:24.285Z,0
2017-11-25T05:19:33.106Z,0
2017-11-25T05:20:42.173Z,0
2017-11-25T05:21:50.984Z,0
2017-11-25T05:22:59.520Z,0
2017-11-25T05:24:08.600Z,0
2017-11-25T05:25:17.405Z,0
2017-11-25T05:26:26.218Z,0
2017-11-25T05:27:34.769Z,0
2017-11-25T05:28:43.566Z,0
2017-11-25T05:29:52.387Z,0
2017-11-25T05:31:01.747Z,0
2017-11-25T05:32:10.828Z,0
2017-11-25T05:33:19.364Z,0
2017-11-25T05:34:27.907Z,0
2017-11-25T05:35:36.448Z,0
2017-11-25T05:36:45.255Z,0
2017-11-25T05:37:53.792Z,0
2017-11-25T05:39:02.328Z,0
2017-11-25T05:40:11.139Z,0
2017-11-25T05:41:19.947Z,0
2017-11-25T05:42:28.486Z,0
2017-11-25T05:43:37.304Z,0
2017-11-25T05:44:46.115Z,0
2017-11-25T05:45:54.925Z,0
2017-11-25T05:47:03.732Z,0
2017-11-25T05:48:12.270Z,0
2017-11-25T05:49:21.628Z,0
2017-11-25T05:50:30.438Z,0
2017-11-25T05:51:38.975Z,0
2017-11-25T05:52:48.332Z,0
2017-11-25T05:53:57.139Z,0
2017-11-25T05:55:05.679Z,0
2017-11-25T05:56:14.483Z,0
2017-11-25T05:57:23.300Z,0
2017-11-25T05:58:32.124Z,0
2017-11-25T05:59:41.214Z,0
2017-11-25T06:00:50.036Z,0
2017-11-25T06:01:59.120Z,0
2017-11-25T06:03:07.931Z,0
2017-11-25T06:04:16.743Z,0
2017-11-25T06:05:25.281Z,0
2017-11-25T06:06:34.097Z,0
2017-11-25T06:07:42.906Z,0
2017-11-25T06:08:51.995Z,0
2017-11-25T06:10:00.814Z,0
2017-11-25T06:11:09.629Z,0
2017-11-25T06:12:18.436Z,0
2017-11-25T06:13:27.532Z,0
2017-11-25T06:14:36.339Z,0
2017-11-25T06:15:45.166Z,0
2017-11-25T06:16:53.987Z,0
2017-11-25T06:18:02.528Z,0
2017-11-25T06:19:11.063Z,0
2017-11-25T06:20:20.431Z,0
2017-11-25T06:21:29.241Z,0
2017-11-25T06:22:38.055Z,0
2017-11-25T06:23:46.594Z,0
2017-11-25T06:24:55.398Z,0
2017-11-25T06:26:04.218Z,0
2017-11-25T06:27:13.035Z,0
2017-11-25T06:28:21.842Z,0
2017-11-25T06:29:30.377Z,0
2017-11-25T06:30:38.915Z,0
2017-11-25T06:31:47.454Z,0
2017-11-25T06:32:55.993Z,0
2017-11-25T06:34:04.533Z,0
2017-11-25T06:35:13.067Z,0
2017-11-25T06:36:21.870Z,0
2017-11-25T06:37:30.411Z,0
2017-11-25T06:38:39.487Z,4
2017-11-25T06:39:48.295Z,4
2017-11-25T06:40:57.373Z,4
2017-11-25T06:42:06.183Z,4
2017-11-25T06:43:14.993Z,8
2017-11-25T06:44:23.802Z,4
2017-11-25T06:45:32.618Z,8
2017-11-25T06:46:41.157Z,12
2017-11-25T06:47:50.245Z,12
2017-11-25T06:48:59.326Z,12
2017-11-25T06:50:07.865Z,16
2017-11-25T06:51:16.403Z,20
2017-11-25T06:52:25.216Z,20
2017-11-25T06:53:34.434Z,28
2017-11-25T06:54:42.974Z,28
2017-11-25T06:55:52.324Z,32
2017-11-25T06:57:01.404Z,40
2017-11-25T06:58:10.210Z,44
2017-11-25T06:59:19.369Z,48
2017-11-25T07:00:28.180Z,56
2017-11-25T07:01:37.263Z,64
2017-11-25T07:02:45.803Z,72
2017-11-25T07:03:54.934Z,80
2017-11-25T07:05:03.750Z,92
2017-11-25T07:06:12.559Z,104
2017-11-25T07:07:21.100Z,112
2017-11-25T07:08:29.910Z,124
2017-11-25T07:09:38.723Z,136
2017-11-25T07:10:47.815Z,144
2017-11-25T07:11:56.629Z,156
2017-11-25T07:13:05.742Z,164
2017-11-25T07:14:14.561Z,176
2017-11-25T07:15:23.644Z,188
2017-11-25T07:16:32.459Z,200
2017-11-25T07:17:40.992Z,208
2017-11-25T07:18:49.797Z,224
2017-11-25T07:19:58.622Z,240
2017-11-25T07:21:07.157Z,260
2017-11-25T07:22:15.695Z,276
2017-11-25T07:23:24.782Z,292
2017-11-25T07:24:33.589Z,308
2017-11-25T07:25:42.403Z,320
2017-11-25T07:26:51.209Z,336
2017-11-25T07:27:59.745Z,348
2017-11-25T07:29:08.554Z,364
2017-11-25T07:30:17.370Z,380
2017-11-25T07:31:25.909Z,404
2017-11-25T07:32:34.767Z,436
2017-11-25T07:33:43.900Z,476
2017-11-25T07:34:52.709Z,524
2017-11-25T07:36:02.071Z,568
2017-11-25T07:37:11.162Z,616
2017-11-25T07:38:19.698Z,652
2017-11-25T07:39:28.237Z,700
2017-11-25T07:40:37.057Z,740
2017-11-25T07:41:45.866Z,784
2017-11-25T07:42:54.677Z,820
2017-11-25T07:44:03.481Z,852
2017-11-25T07:45:12.044Z,880
2017-11-25T07:46:21.126Z,912
2017-11-25T07:47:29.936Z,936
2017-11-25T07:48:38.745Z,964
2017-11-25T07:49:47.283Z,988
2017-11-25T07:50:56.100Z,1012
2017-11-25T07:52:04.909Z,1024
2017-11-25T07:53:13.994Z,1040
2017-11-25T07:54:23.072Z,1060
2017-11-25T07:55:31.888Z,1092
2017-11-25T07:56:40.697Z,1120
2017-11-25T07:57:49.780Z,1160
2017-11-25T07:58:58.318Z,1200
2017-11-25T08:00:06.857Z,1240
2017-11-25T08:01:15.672Z,1276
2017-11-25T08:02:24.488Z,1312
2017-11-25T08:03:33.298Z,1352
2017-11-25T08:04:41.836Z,1404
2017-11-25T08:05:50.647Z,1468
2017-11-25T08:06:59.728Z,1548
2017-11-25T08:08:08.809Z,1636
2017-11-25T08:09:17.618Z,1744
2017-11-25T08:10:26.427Z,1836
2017-11-25T08:11:35.235Z,1916
2017-11-25T08:12:43.773Z,1996
2017-11-25T08:13:52.305Z,2064
2017-11-25T08:15:01.116Z,2140
2017-11-25T08:16:09.921Z,2220
2017-11-25T08:17:19.009Z,2264
2017-11-25T08:18:27.549Z,2264
2017-11-25T08:19:36.363Z,2288
2017-11-25T08:20:45.172Z,2292
2017-11-25T08:21:53.975Z,2272
2017-11-25T08:23:02.515Z,2300
2017-11-25T08:24:11.875Z,2300
2017-11-25T08:25:20.682Z,2248
2017-11-25T08:26:29.770Z,2224
2017-11-25T08:27:38.306Z,2200
2017-11-25T08:28:46.843Z,2224
2017-11-25T08:29:55.657Z,2276
2017-11-25T08:31:04.746Z,2284
2017-11-25T08:32:13.822Z,2324
2017-11-25T08:33:22.362Z,2324
2017-11-25T08:34:31.169Z,2316
2017-11-25T08:35:39.985Z,2320
2017-11-25T08:36:48.792Z,2344
2017-11-25T08:37:57.331Z,2328
2017-11-25T08:39:06.140Z,2296
2017-11-25T08:40:14.677Z,2256
2017-11-25T08:41:23.218Z,2208
2017-11-25T08:42:32.030Z,2188
2017-11-25T08:43:40.577Z,2176
2017-11-25T08:44:49.401Z,2196
2017-11-25T08:45:58.132Z,2188
2017-11-25T08:47:06.668Z,2164
2017-11-25T08:48:15.203Z,2184
2017-11-25T08:49:23.740Z,2176
2017-11-25T08:50:32.276Z,2136
2017-11-25T08:51:41.856Z,2064
2017-11-25T08:52:50.667Z,2020
2017-11-25T08:53:59.222Z,2056
2017-11-25T08:55:08.309Z,2088
2017-11-25T08:56:16.851Z,2080
2017-11-25T08:57:25.932Z,2104
2017-11-25T08:58:34.471Z,2100
2017-11-25T08:59:43.550Z,2116
2017-11-25T09:00:52.359Z,2020
2017-11-25T09:02:01.176Z,2000
2017-11-25T09:03:10.531Z,1988
2017-11-25T09:04:19.888Z,1900
2017-11-25T09:05:28.696Z,1872
2017-11-25T09:06:37.501Z,1872
2017-11-25T09:07:46.851Z,1876
2017-11-25T09:08:55.388Z,1892
2017-11-25T09:10:04.201Z,1880
2017-11-25T09:11:13.010Z,1920
2017-11-25T09:12:21.556Z,1988
2017-11-25T09:13:30.095Z,2068
2017-11-25T09:14:39.180Z,2112
2017-11-25T09:15:48.256Z,2284
2017-11-25T09:16:56.792Z,2380
2017-11-25T09:18:05.331Z,2460
2017-11-25T09:19:14.000Z,2524
2017-11-25T09:20:22.852Z,2652
2017-11-25T09:21:31.477Z,2696
2017-11-25T09:22:40.016Z,2676
2017-11-25T09:23:48.825Z,2700
2017-11-25T09:24:57.361Z,2724
2017-11-25T09:26:06.172Z,2716
2017-11-25T09:27:15.340Z,2500
2017-11-25T09:28:24.877Z,2408
2017-11-25T09:29:33.694Z,2440
2017-11-25T09:30:42.510Z,2640
2017-11-25T09:31:51.325Z,2612
2017-11-25T09:33:00.414Z,2548
2017-11-25T09:34:09.215Z,2568
2017-11-25T09:35:17.753Z,2752
2017-11-25T09:36:26.288Z,2760
2017-11-25T09:37:35.364Z,2764
2017-11-25T09:38:44.176Z,2768
2017-11-25T09:39:52.994Z,2784
2017-11-25T09:41:02.090Z,2804
2017-11-25T09:42:10.945Z,2756
2017-11-25T09:43:19.754Z,2768
2017-11-25T09:44:28.561Z,2788
2017-11-25T09:45:37.378Z,2808
2017-11-25T09:46:46.245Z,2824
2017-11-25T09:47:55.058Z,2840
2017-11-25T09:49:03.601Z,2856
2017-11-25T09:50:12.686Z,2856
2017-11-25T09:51:21.492Z,2872
2017-11-25T09:52:30.034Z,2896
2017-11-25T09:53:38.838Z,2932
2017-11-25T09:54:47.648Z,2976
2017-11-25T09:55:56.462Z,3004
2017-11-25T09:57:05.000Z,3044
2017-11-25T09:58:13.891Z,3096
2017-11-25T09:59:22.735Z,3116
2017-11-25T10:00:31.273Z,3148
2017-11-25T10:01:40.120Z,3272
2017-11-25T10:02:48.719Z,3388
2017-11-25T10:03:57.532Z,3368
2017-11-25T10:05:06.133Z,3552
2017-11-25T10:06:15.488Z,3632
2017-11-25T10:07:24.837Z,3704
2017-11-25T10:08:33.693Z,3792
2017-11-25T10:09:42.296Z,3856
2017-11-25T10:10:51.108Z,3936
2017-11-25T10:11:59.922Z,4060
2017-11-25T10:13:09.029Z,4164
2017-11-25T10:14:18.116Z,4276
2017-11-25T10:15:27.198Z,4368
2017-11-25T10:16:36.009Z,4408
2017-11-25T10:17:44.566Z,4436
2017-11-25T10:18:53.942Z,4456
2017-11-25T10:20:02.751Z,4500
2017-11-25T10:21:11.288Z,4588
2017-11-25T10:22:20.101Z,4680
2017-11-25T10:23:28.907Z,4772
2017-11-25T10:24:37.723Z,4800
2017-11-25T10:25:46.582Z,4876
2017-11-25T10:26:55.124Z,4848
2017-11-25T10:28:04.211Z,4820
2017-11-25T10:29:12.750Z,4896
2017-11-25T10:30:21.287Z,4860
2017-11-25T10:31:29.826Z,4720
2017-11-25T10:32:38.367Z,4600
2017-11-25T10:33:47.179Z,4524
2017-11-25T10:34:56.261Z,4304
2017-11-25T10:36:05.345Z,3980
2017-11-25T10:37:14.428Z,3928
2017-11-25T10:38:23.000Z,3760
2017-11-25T10:39:31.812Z,3732
2017-11-25T10:40:41.171Z,3616
2017-11-25T10:41:50.256Z,3468
2017-11-25T10:42:58.853Z,3400
2017-11-25T10:44:07.664Z,3436
2017-11-25T10:45:16.205Z,3544
2017-11-25T10:46:25.069Z,3680
2017-11-25T10:47:33.607Z,3776
2017-11-25T10:48:42.426Z,3536
2017-11-25T10:49:50.975Z,3400
2017-11-25T10:50:59.514Z,3416
2017-11-25T10:52:08.326Z,3524
2017-11-25T10:53:16.867Z,3632
2017-11-25T10:54:25.404Z,3804
2017-11-25T10:55:34.492Z,3980
2017-11-25T10:56:43.036Z,4132
2017-11-25T10:57:51.841Z,4392
2017-11-25T10:59:00.926Z,4612
2017-11-25T11:00:09.466Z,4836
2017-11-25T11:01:18.300Z,5084
2017-11-25T11:02:26.813Z,5320
2017-11-25T11:03:35.894Z,5748
2017-11-25T11:04:44.715Z,5972
2017-11-25T11:05:53.258Z,6052
2017-11-25T11:07:02.351Z,6192
2017-11-25T11:08:11.159Z,6116
2017-11-25T11:09:19.699Z,5760
2017-11-25T11:10:29.063Z,6056
2017-11-25T11:11:37.599Z,6036
2017-11-25T11:12:46.547Z,5972
2017-11-25T11:13:55.631Z,5856
2017-11-25T11:15:04.176Z,5624
2017-11-25T11:16:12.984Z,4908
2017-11-25T11:17:21.520Z,4616
2017-11-25T11:18:30.608Z,4548
2017-11-25T11:19:39.671Z,4608
2017-11-25T11:20:48.827Z,4920
2017-11-25T11:21:57.906Z,5012
2017-11-25T11:23:07.359Z,4936
2017-11-25T11:24:16.170Z,5008
2017-11-25T11:25:25.270Z,5140
2017-11-25T11:26:34.355Z,5256
2017-11-25T11:27:43.171Z,5400
2017-11-25T11:28:52.505Z,5432
2017-11-25T11:30:01.316Z,5436
2017-11-25T11:31:09.857Z,5388
2017-11-25T11:32:18.668Z,5336
2017-11-25T11:33:27.484Z,5324
2017-11-25T11:34:36.321Z,5336
2017-11-25T11:35:45.715Z,5328
2017-11-25T11:36:54.807Z,5360
2017-11-25T11:38:03.373Z,5364
2017-11-25T11:39:12.183Z,5288
2017-11-25T11:40:20.993Z,5184
2017-11-25T11:41:29.538Z,5096
2017-11-25T11:42:38.632Z,5060
2017-11-25T11:43:47.449Z,5024
2017-11-25T11:44:56.261Z,5000
2017-11-25T11:46:05.075Z,4952
2017-11-25T11:47:13.941Z,4896
2017-11-25T11:48:22.754Z,4812
2017-11-25T11:49:31.299Z,4692
2017-11-25T11:50:40.381Z,4564
2017-11-25T11:51:48.926Z,4440
2017-11-25T11:52:57.741Z,4344
2017-11-25T11:54:06.418Z,4244
2017-11-25T11:55:15.942Z,4164
2017-11-25T11:56:25.033Z,4080
2017-11-25T11:57:34.114Z,4032
2017-11-25T11:58:42.927Z,4020
2017-11-25T11:59:51.737Z,4008
2017-11-25T12:01:00.547Z,4028
2017-11-25T12:02:09.092Z,4076
2017-11-25T12:03:18.181Z,4160
2017-11-25T12:04:27.051Z,4216
2017-11-25T12:05:36.501Z,4296
2017-11-25T12:06:45.040Z,4428
2017-11-25T12:07:53.579Z,4552
2017-11-25T12:09:02.415Z,4632
2017-11-25T12:10:12.121Z,4632
2017-11-25T12:11:21.205Z,4568
2017-11-25T12:12:30.288Z,4456
2017-11-25T12:13:39.288Z,4332
2017-11-25T12:14:48.109Z,4224
2017-11-25T12:15:56.923Z,4200
2017-11-25T12:17:05.464Z,4232
2017-11-25T12:18:14.826Z,4312
2017-11-25T12:19:23.367Z,4388
2017-11-25T12:20:31.912Z,4460
2017-11-25T12:21:40.452Z,4532
2017-11-25T12:22:49.605Z,4584
2017-11-25T12:23:58.976Z,4608
2017-11-25T12:25:07.792Z,4592
2017-11-25T12:26:17.455Z,4604
2017-11-25T12:27:26.813Z,4632
2017-11-25T12:28:35.350Z,4604
2017-11-25T12:29:44.159Z,4552
2017-11-25T12:30:52.982Z,4468
2017-11-25T12:32:01.620Z,4392
2017-11-25T12:33:10.214Z,4344
2017-11-25T12:34:19.535Z,4276
2017-11-25T12:35:28.226Z,4216
2017-11-25T12:36:37.475Z,4124
2017-11-25T12:37:46.289Z,4148
2017-11-25T12:38:54.854Z,4164
2017-11-25T12:40:03.682Z,4188
2017-11-25T12:41:12.548Z,4176
2017-11-25T12:42:21.712Z,4188
2017-11-25T12:43:30.337Z,4168
2017-11-25T12:44:38.883Z,4128
2017-11-25T12:45:47.981Z,4100
2017-11-25T12:46:56.555Z,4088
2017-11-25T12:48:05.381Z,4092
2017-11-25T12:49:13.929Z,4056
2017-11-25T12:50:22.516Z,3988
2017-11-25T12:51:31.609Z,3916
2017-11-25T12:52:40.296Z,3816
2017-11-25T12:53:49.379Z,3772
2017-11-25T12:54:58.197Z,3764
2017-11-25T12:56:06.739Z,3792
2017-11-25T12:57:15.576Z,3844
2017-11-25T12:58:24.936Z,3928
2017-11-25T12:59:33.779Z,4040
2017-11-25T13:00:42.586Z,4148
2017-11-25T13:01:51.672Z,4224
2017-11-25T13:03:00.406Z,4272
2017-11-25T13:04:09.243Z,4308
2017-11-25T13:05:18.361Z,4268
2017-11-25T13:06:26.903Z,4204
2017-11-25T13:07:35.719Z,4128
2017-11-25T13:08:44.818Z,4088
2017-11-25T13:09:53.713Z,4072
2017-11-25T13:11:02.267Z,4060
2017-11-25T13:12:11.354Z,4048
2017-11-25T13:13:20.443Z,4020
2017-11-25T13:14:28.982Z,3948
2017-11-25T13:15:37.807Z,3864
2017-11-25T13:16:46.389Z,3820
2017-11-25T13:17:54.935Z,3792
2017-11-25T13:19:03.477Z,3756
2017-11-25T13:20:12.019Z,3708
2017-11-25T13:21:20.834Z,3648
2017-11-25T13:22:29.648Z,3608
2017-11-25T13:23:38.750Z,3612
2017-11-25T13:24:47.286Z,3672
2017-11-25T13:25:55.824Z,3760
2017-11-25T13:27:04.646Z,3856
2017-11-25T13:28:13.456Z,3948
2017-11-25T13:29:22.545Z,3940
2017-11-25T13:30:31.356Z,3844
2017-11-25T13:31:40.167Z,3700
2017-11-25T13:32:49.453Z,3524
2017-11-25T13:33:58.080Z,3364
2017-11-25T13:35:06.620Z,3240
2017-11-25T13:36:15.159Z,3116
2017-11-25T13:37:23.994Z,2988
2017-11-25T13:38:32.803Z,2856
2017-11-25T13:39:41.613Z,2780
2017-11-25T13:40:50.697Z,2756
2017-11-25T13:41:59.241Z,2732
2017-11-25T13:43:08.354Z,2720
2017-11-25T13:44:17.174Z,2732
2017-11-25T13:45:25.723Z,2720
2017-11-25T13:46:34.535Z,2720
2017-11-25T13:47:43.342Z,2644
2017-11-25T13:48:52.431Z,2608
2017-11-25T13:50:01.512Z,2576
2017-11-25T13:51:10.051Z,2520
2017-11-25T13:52:18.588Z,2452
2017-11-25T13:53:27.408Z,2396
2017-11-25T13:54:36.496Z,2324
2017-11-25T13:55:45.579Z,2248
2017-11-25T13:56:54.120Z,2136
2017-11-25T13:58:03.205Z,2116
2017-11-25T13:59:12.307Z,2124
2017-11-25T14:00:21.124Z,2112
2017-11-25T14:01:29.664Z,2136
2017-11-25T14:02:38.744Z,2120
2017-11-25T14:03:47.280Z,2104
2017-11-25T14:04:56.090Z,2068
2017-11-25T14:06:04.627Z,2008
2017-11-25T14:07:13.440Z,1968
2017-11-25T14:08:22.516Z,1944
2017-11-25T14:09:31.060Z,1912
2017-11-25T14:10:39.596Z,1868
2017-11-25T14:11:48.403Z,1828
2017-11-25T14:12:56.939Z,1804
2017-11-25T14:14:06.029Z,1780
2017-11-25T14:15:14.987Z,1776
2017-11-25T14:16:23.814Z,1764
2017-11-25T14:17:32.353Z,1756
2017-11-25T14:18:40.914Z,1768
2017-11-25T14:19:49.455Z,1780
2017-11-25T14:20:58.533Z,1796
2017-11-25T14:22:07.093Z,1784
2017-11-25T14:23:15.626Z,1752
2017-11-25T14:24:24.173Z,1724
2017-11-25T14:25:33.540Z,1696
2017-11-25T14:26:42.353Z,1632
2017-11-25T14:27:50.892Z,1572
2017-11-25T14:28:59.798Z,1512
2017-11-25T14:30:08.334Z,1444
2017-11-25T14:31:16.873Z,1400
2017-11-25T14:32:25.693Z,1340
2017-11-25T14:33:34.510Z,1212
2017-11-25T14:34:43.592Z,1156
2017-11-25T14:35:52.406Z,1128
2017-11-25T14:37:00.947Z,1072
2017-11-25T14:38:09.760Z,1048
2017-11-25T14:39:20.925Z,1056
2017-11-25T14:40:30.651Z,1084
2017-11-25T14:41:39.752Z,1092
2017-11-25T14:42:48.289Z,1084
2017-11-25T14:43:57.106Z,1080
2017-11-25T14:45:05.926Z,1012
2017-11-25T14:46:14.470Z,980
2017-11-25T14:47:23.285Z,940
2017-11-25T14:48:31.897Z,900
2017-11-25T14:49:40.826Z,792
2017-11-25T14:50:49.920Z,716
2017-11-25T14:51:58.753Z,800
2017-11-25T14:53:07.839Z,840
2017-11-25T14:54:16.657Z,812
2017-11-25T14:55:25.479Z,792
2017-11-25T14:56:34.511Z,808
2017-11-25T14:57:45.301Z,764
2017-11-25T14:58:55.471Z,640
2017-11-25T15:00:04.040Z,700
2017-11-25T15:01:12.857Z,756
2017-11-25T15:02:21.702Z,728
2017-11-25T15:03:30.571Z,704
2017-11-25T15:04:39.379Z,576
2017-11-25T15:05:48.190Z,520
2017-11-25T15:06:57.272Z,552
2017-11-25T15:08:06.085Z,540
2017-11-25T15:09:15.165Z,500
2017-11-25T15:10:23.708Z,468
2017-11-25T15:11:32.543Z,444
2017-11-25T15:12:41.252Z,424
2017-11-25T15:13:50.058Z,416
2017-11-25T15:14:58.600Z,412
2017-11-25T15:16:07.427Z,408
2017-11-25T15:17:16.030Z,400
2017-11-25T15:18:25.153Z,388
2017-11-25T15:19:34.230Z,368
2017-11-25T15:20:42.766Z,340
2017-11-25T15:21:51.305Z,312
2017-11-25T15:23:00.116Z,284
2017-11-25T15:24:09.197Z,244
2017-11-25T15:25:18.014Z,212
2017-11-25T15:26:27.131Z,184
2017-11-25T15:27:35.677Z,168
2017-11-25T15:28:44.478Z,152
2017-11-25T15:29:53.296Z,148
2017-11-25T15:31:02.115Z,140
2017-11-25T15:32:10.970Z,128
2017-11-25T15:33:19.792Z,120
2017-11-25T15:34:28.599Z,108
2017-11-25T15:35:37.136Z,96
2017-11-25T15:36:46.223Z,88
2017-11-25T15:37:55.319Z,80
2017-11-25T15:39:04.695Z,72
2017-11-25T15:40:13.774Z,60
2017-11-25T15:41:22.857Z,52
2017-11-25T15:42:31.394Z,44
2017-11-25T15:43:40.202Z,40
2017-11-25T15:44:49.023Z,32
2017-11-25T15:45:58.107Z,28
2017-11-25T15:47:06.642Z,24
2017-11-25T15:48:15.745Z,24
2017-11-25T15:49:24.282Z,16
2017-11-25T15:50:33.093Z,16
2017-11-25T15:51:41.632Z,12
2017-11-25T15:52:50.171Z,12
2017-11-25T15:53:58.981Z,8
2017-11-25T15:55:08.067Z,12
2017-11-25T15:56:17.421Z,8
2017-11-25T15:57:26.507Z,8
2017-11-25T15:58:35.316Z,8
2017-11-25T15:59:44.124Z,4
2017-11-25T16:00:52.660Z,4
2017-11-25T16:02:01.198Z,4
2017-11-25T16:03:10.280Z,0